DAL1454 KATL-KDFW
Flight info
| Callsign | DAL1454 |
|---|---|
| Flight time | N/A |
| Altitude | 36000 |
| Route | KAJIN2 STNGA MLU YUYUN BEREE3 |
| Aircraft | B739/M-SDE2E3FGHIRWXY/LB1 |
Departure
| Time | 2026-05-04 16:31 |
|---|---|
| Airport | Hartsfield Jackson Atlanta International Airport (KATL) |
Arrival
| Time | N/A |
|---|---|
| Airport | Dallas Fort Worth International Airport (KDFW) |
| Time | Latitude | Longitude | Altitude | Speed | Heading |
|---|---|---|---|---|---|
| 2026-05-04 16:06 | 33.63982 | -84.43201 | 1023 ft | 0 kts | 270° |
| 2026-05-04 16:20 | 33.63982 | -84.43200 | 1022 ft | 1 kts | 270° |
| 2026-05-04 16:21 | 33.63982 | -84.43147 | 1022 ft | 1 kts | 270° |
| 2026-05-04 16:22 | 33.63990 | -84.43129 | 1022 ft | 1 kts | 191° |
| 2026-05-04 16:22 | 33.63999 | -84.43129 | 1022 ft | 0 kts | 180° |
| 2026-05-04 16:24 | 33.63996 | -84.43129 | 1022 ft | 0 kts | 180° |
| 2026-05-04 16:25 | 33.63938 | -84.43130 | 1022 ft | 5 kts | 180° |
| 2026-05-04 16:26 | 33.63715 | -84.43129 | 1022 ft | 13 kts | 171° |
| 2026-05-04 16:26 | 33.63655 | -84.42674 | 1022 ft | 26 kts | 96° |
| 2026-05-04 16:27 | 33.63654 | -84.42084 | 1019 ft | 35 kts | 90° |
| 2026-05-04 16:28 | 33.63654 | -84.41522 | 1019 ft | 19 kts | 89° |
| 2026-05-04 16:28 | 33.63656 | -84.40993 | 1006 ft | 17 kts | 90° |
| 2026-05-04 16:29 | 33.63470 | -84.40991 | 1005 ft | 8 kts | 269° |
| 2026-05-04 16:30 | 33.63471 | -84.43521 | 1182 ft | 182 kts | 271° |
| 2026-05-04 16:31 | 33.63568 | -84.46482 | 2829 ft | 187 kts | 268° |
| 2026-05-04 16:31 | 33.63473 | -84.51757 | 4809 ft | 238 kts | 270° |
| 2026-05-04 16:32 | 33.63470 | -84.58292 | 6867 ft | 288 kts | 270° |
| 2026-05-04 16:33 | 33.63469 | -84.63341 | 8210 ft | 316 kts | 269° |
| 2026-05-04 16:33 | 33.63448 | -84.68671 | 9820 ft | 327 kts | 265° |
| 2026-05-04 16:34 | 33.62841 | -84.73957 | 11644 ft | 326 kts | 260° |
| 2026-05-04 16:34 | 33.62503 | -84.76584 | 12437 ft | 329 kts | 262° |
| 2026-05-04 16:35 | 33.61571 | -84.84668 | 14867 ft | 335 kts | 263° |
| 2026-05-04 16:35 | 33.60646 | -84.92997 | 17125 ft | 342 kts | 264° |
| 2026-05-04 16:36 | 33.60340 | -84.95746 | 17856 ft | 343 kts | 264° |
| 2026-05-04 16:36 | 33.59706 | -85.01434 | 19200 ft | 349 kts | 264° |
| 2026-05-04 16:37 | 33.59060 | -85.07199 | 20572 ft | 351 kts | 264° |
| 2026-05-04 16:37 | 33.58733 | -85.10105 | 21185 ft | 354 kts | 264° |
| 2026-05-04 16:37 | 33.58075 | -85.15942 | 22392 ft | 357 kts | 264° |
| 2026-05-04 16:38 | 33.57402 | -85.21885 | 23531 ft | 361 kts | 264° |
| 2026-05-04 16:39 | 33.56372 | -85.30927 | 25104 ft | 368 kts | 264° |
| 2026-05-04 16:39 | 33.55677 | -85.36992 | 26382 ft | 364 kts | 264° |
| 2026-05-04 16:40 | 33.54993 | -85.42934 | 27647 ft | 359 kts | 264° |
| 2026-05-04 16:40 | 33.54312 | -85.48831 | 28808 ft | 354 kts | 264° |
| 2026-05-04 16:41 | 33.53642 | -85.54601 | 29948 ft | 348 kts | 264° |
| 2026-05-04 16:41 | 33.52642 | -85.63185 | 31308 ft | 346 kts | 264° |
| 2026-05-04 16:42 | 33.51761 | -85.70710 | 32470 ft | 344 kts | 264° |
| 2026-05-04 16:43 | 33.51123 | -85.76126 | 33269 ft | 341 kts | 265° |
| 2026-05-04 16:43 | 33.50461 | -85.81724 | 33944 ft | 342 kts | 265° |
| 2026-05-04 16:43 | 33.50124 | -85.84584 | 33922 ft | 352 kts | 264° |
| 2026-05-04 16:44 | 33.48673 | -85.96800 | 33800 ft | 390 kts | 264° |
| 2026-05-04 16:45 | 33.47887 | -86.03354 | 33952 ft | 404 kts | 264° |
| 2026-05-04 16:46 | 33.46667 | -86.13416 | 34743 ft | 409 kts | 264° |
| 2026-05-04 16:46 | 33.45846 | -86.20164 | 35265 ft | 411 kts | 265° |
| 2026-05-04 16:47 | 33.45022 | -86.26910 | 35690 ft | 413 kts | 265° |
| 2026-05-04 16:47 | 33.44186 | -86.33733 | 36042 ft | 416 kts | 265° |
| 2026-05-04 16:48 | 33.42498 | -86.47400 | 36083 ft | 413 kts | 265° |
| 2026-05-04 16:49 | 33.40818 | -86.60906 | 36090 ft | 414 kts | 265° |
| 2026-05-04 16:50 | 33.39115 | -86.74464 | 36087 ft | 413 kts | 265° |
| 2026-05-04 16:51 | 33.37840 | -86.84516 | 36106 ft | 408 kts | 264° |
| 2026-05-04 16:52 | 33.36122 | -86.97984 | 36089 ft | 412 kts | 265° |
| 2026-05-04 16:53 | 33.34824 | -87.08057 | 36084 ft | 410 kts | 265° |
| 2026-05-04 16:54 | 33.33080 | -87.21516 | 36067 ft | 406 kts | 265° |
| 2026-05-04 16:55 | 33.30472 | -87.41378 | 36064 ft | 396 kts | 265° |
| 2026-05-04 16:56 | 33.28316 | -87.57674 | 36070 ft | 397 kts | 265° |
| 2026-05-04 16:57 | 33.27014 | -87.67407 | 36063 ft | 397 kts | 265° |
| 2026-05-04 16:58 | 33.25274 | -87.80336 | 36066 ft | 395 kts | 265° |
| 2026-05-04 17:00 | 33.22644 | -87.99706 | 36062 ft | 393 kts | 265° |
| 2026-05-04 17:01 | 33.20448 | -88.15681 | 36048 ft | 392 kts | 266° |
| 2026-05-04 17:02 | 33.18676 | -88.28477 | 36047 ft | 392 kts | 265° |
| 2026-05-04 17:03 | 33.17327 | -88.38116 | 36037 ft | 392 kts | 266° |
| 2026-05-04 17:03 | 33.15982 | -88.47679 | 36044 ft | 390 kts | 266° |
| 2026-05-04 17:04 | 33.14183 | -88.60398 | 36042 ft | 389 kts | 266° |
| 2026-05-04 17:05 | 33.12434 | -88.72700 | 36045 ft | 388 kts | 266° |
| 2026-05-04 17:06 | 33.11071 | -88.82224 | 36036 ft | 389 kts | 266° |
| 2026-05-04 17:07 | 33.10035 | -88.89424 | 36063 ft | 388 kts | 266° |
| 2026-05-04 17:07 | 33.09394 | -88.93864 | 36035 ft | 391 kts | 266° |
| 2026-05-04 17:08 | 33.08019 | -89.03318 | 36068 ft | 388 kts | 266° |
| 2026-05-04 17:09 | 33.07092 | -89.09679 | 36057 ft | 389 kts | 266° |
| 2026-05-04 17:09 | 33.06165 | -89.16016 | 36059 ft | 388 kts | 267° |
| 2026-05-04 17:10 | 33.03841 | -89.31786 | 36043 ft | 387 kts | 267° |
| 2026-05-04 17:11 | 33.02904 | -89.38109 | 36043 ft | 388 kts | 268° |
| 2026-05-04 17:12 | 33.01656 | -89.46484 | 36046 ft | 385 kts | 268° |
| 2026-05-04 17:13 | 32.99298 | -89.62226 | 36057 ft | 386 kts | 267° |
| 2026-05-04 17:14 | 32.97394 | -89.74829 | 36044 ft | 386 kts | 268° |
| 2026-05-04 17:15 | 32.95961 | -89.84256 | 36044 ft | 389 kts | 267° |
| 2026-05-04 17:16 | 32.94036 | -89.96838 | 36048 ft | 387 kts | 268° |
| 2026-05-04 17:17 | 32.92101 | -90.09381 | 36052 ft | 384 kts | 268° |